Time;durP1;ratioP1;P1;durP2;ratioP2;P2;SDS_P1;SDS_P2;PMS_P1;PMS_P2;Temp;Humidity;BMP_temperature;BMP_pressure;BME280_temperature;BME280_humidity;BME280_pressure;Samples;Min_cycle;Max_cycle;Signal;HPM_P1;HPM_P2
2022/07/30 00:00:54;;;;;;;9.95;6.25;;;19.70;99.90;;;;;;4917033;29;20042;-48
2022/07/30 00:03:19;;;;;;;7.20;6.50;;;19.80;99.90;;;;;;4914597;29;20020;-47
2022/07/30 00:05:45;;;;;;;6.75;6.05;;;19.80;99.90;;;;;;4916923;29;20043;-47
2022/07/30 00:08:10;;;;;;;7.07;6.47;;;19.70;99.90;;;;;;4916536;29;20459;-49
2022/07/30 00:10:36;;;;;;;9.93;7.07;;;19.70;99.90;;;;;;4916919;29;20044;-47
2022/07/30 00:13:01;;;;;;;7.60;6.40;;;19.70;99.90;;;;;;4916813;29;20115;-46
2022/07/30 00:15:27;;;;;;;6.05;5.50;;;19.70;99.90;;;;;;4916637;29;20394;-48
2022/07/30 00:17:52;;;;;;;8.55;5.50;;;19.70;99.90;;;;;;4917005;29;20028;-46
2022/07/30 00:20:18;;;;;;;6.65;5.95;;;19.80;99.90;;;;;;4915516;29;20028;-48
2022/07/30 00:22:44;;;;;;;7.97;5.50;;;19.80;99.90;;;;;;4916654;29;20027;-48
2022/07/30 00:25:09;;;;;;;6.13;5.63;;;19.70;99.90;;;;;;4916279;29;20119;-49
2022/07/30 00:27:35;;;;;;;6.43;5.22;;;19.70;99.90;;;;;;4916577;29;20028;-50
2022/07/30 00:30:02;;;;;;;6.13;5.63;;;19.70;99.90;;;;;;4916614;29;20028;-46
2022/07/30 00:32:28;;;;;;;6.30;5.70;;;19.70;99.90;;;;;;4916564;29;20394;-49
2022/07/30 00:34:53;;;;;;;6.05;5.43;;;19.60;99.90;;;;;;4916199;29;20028;-46
2022/07/30 00:37:19;;;;;;;7.05;4.70;;;19.60;99.90;;;;;;4916453;29;20107;-47
2022/07/30 00:39:44;;;;;;;5.85;5.05;;;19.60;99.90;;;;;;4916412;29;20071;-48
2022/07/30 00:42:10;;;;;;;6.05;5.18;;;19.60;99.90;;;;;;4916338;29;20051;-50
2022/07/30 00:44:35;;;;;;;7.78;5.75;;;19.60;99.90;;;;;;4915989;29;20028;-50
2022/07/30 00:47:01;;;;;;;92.55;73.47;;;19.50;99.90;;;;;;4916162;29;20045;-47
2022/07/30 00:49:26;;;;;;;22.20;15.52;;;19.60;99.90;;;;;;4916286;29;20115;-51
2022/07/30 00:51:52;;;;;;;21.92;14.73;;;19.60;99.90;;;;;;4916267;29;20386;-49
2022/07/30 00:54:18;;;;;;;12.75;8.18;;;19.50;99.90;;;;;;4915777;29;20040;-47
2022/07/30 00:56:43;;;;;;;7.35;6.68;;;19.50;99.90;;;;;;4915900;29;20028;-47
2022/07/30 00:59:09;;;;;;;8.07;7.28;;;19.50;99.90;;;;;;4916047;29;20103;-51
2022/07/30 01:01:35;;;;;;;12.77;7.40;;;19.50;99.90;;;;;;4916093;29;20031;-47
2022/07/30 01:04:01;;;;;;;7.80;7.10;;;19.40;99.90;;;;;;4915595;29;20034;-47
2022/07/30 01:06:26;;;;;;;6.78;6.18;;;19.40;99.90;;;;;;4915896;29;20024;-47
2022/07/30 01:08:53;;;;;;;6.78;5.55;;;19.30;99.90;;;;;;4915266;29;20020;-47
2022/07/30 01:11:18;;;;;;;5.90;5.38;;;19.30;99.90;;;;;;4915823;29;20375;-49
2022/07/30 01:13:44;;;;;;;6.70;6.10;;;19.20;99.90;;;;;;4915549;29;20105;-48
2022/07/30 01:16:10;;;;;;;7.75;5.60;;;19.20;99.90;;;;;;4915677;29;20490;-50
2022/07/30 01:21:40;;;;;;;8.50;6.82;;;19.10;99.90;;;;;;4903809;29;20048;-47
2022/07/30 01:24:37;;;;;;;7.85;7.05;;;19.10;99.90;;;;;;4915297;29;20064;-49
2022/07/30 01:27:03;;;;;;;9.73;8.13;;;19.00;99.90;;;;;;4908027;29;20565;-51
2022/07/30 01:29:30;;;;;;;11.80;8.57;;;19.00;99.90;;;;;;4915649;29;20028;-48
2022/07/30 01:31:58;;;;;;;7.63;6.82;;;18.90;99.90;;;;;;4915502;29;20115;-50
2022/07/30 01:34:27;;;;;;;10.57;7.90;;;18.90;99.90;;;;;;4915190;29;20039;-48
2022/07/30 01:36:55;;;;;;;7.80;6.55;;;18.80;99.90;;;;;;4915446;29;20103;-48
2022/07/30 01:39:21;;;;;;;7.95;6.47;;;18.80;99.90;;;;;;4915448;29;20400;-49
2022/07/30 01:41:49;;;;;;;8.38;7.50;;;18.80;99.90;;;;;;4915471;29;20570;-50
2022/07/30 01:44:16;;;;;;;9.25;7.20;;;18.80;99.90;;;;;;4914997;29;20406;-48
2022/07/30 01:46:42;;;;;;;12.88;7.25;;;18.90;99.90;;;;;;4915272;29;20115;-52
2022/07/30 01:49:10;;;;;;;6.53;5.93;;;18.70;99.90;;;;;;4915309;29;20107;-47
2022/07/30 01:51:37;;;;;;;6.97;6.38;;;18.70;99.90;;;;;;4915416;29;20024;-51
2022/07/30 01:54:07;;;;;;;7.22;6.53;;;18.70;99.90;;;;;;4914992;29;20028;-51
2022/07/30 01:56:34;;;;;;;8.32;7.20;;;18.60;99.90;;;;;;4915312;29;20020;-47
2022/07/30 01:59:01;;;;;;;11.38;7.55;;;18.60;99.90;;;;;;4915183;29;20155;-50
2022/07/30 02:01:27;;;;;;;9.50;8.60;;;18.60;99.90;;;;;;4915401;29;20071;-49
2022/07/30 02:03:52;;;;;;;11.65;9.50;;;18.60;99.90;;;;;;4914861;29;20031;-48
2022/07/30 02:06:31;;;;;;;10.82;9.50;;;18.60;99.90;;;;;;4915175;29;20039;-50
2022/07/30 02:09:00;;;;;;;10.52;9.32;;;18.50;99.90;;;;;;4914647;29;20020;-49
2022/07/30 02:14:33;;;;;;;11.25;9.60;;;18.50;99.90;;;;;;4914832;29;20040;-48
2022/07/30 02:17:01;;;;;;;12.77;8.52;;;18.50;99.90;;;;;;4915432;29;20028;-50
2022/07/30 02:19:35;;;;;;;9.35;8.40;;;18.50;99.90;;;;;;4914975;29;20028;-48
2022/07/30 02:22:05;;;;;;;11.18;9.07;;;18.60;99.90;;;;;;4915076;29;20047;-46
2022/07/30 02:24:32;;;;;;;10.57;8.95;;;18.60;99.90;;;;;;4914723;29;20465;-48
2022/07/30 02:27:04;;;;;;;9.75;8.85;;;18.60;99.90;;;;;;4917174;29;20405;-47
2022/07/30 02:29:33;;;;;;;8.65;7.75;;;18.60;99.90;;;;;;4918766;29;20032;-51
2022/07/30 02:32:00;;;;;;;9.05;8.13;;;18.50;99.90;;;;;;4918658;29;20048;-51
2022/07/30 02:34:28;;;;;;;9.75;8.00;;;18.60;99.90;;;;;;4918447;29;20525;-49
2022/07/30 02:36:54;;;;;;;8.50;7.07;;;18.60;99.90;;;;;;4918613;29;20042;-50
2022/07/30 02:39:21;;;;;;;8.23;7.40;;;18.60;99.90;;;;;;4918628;29;20047;-49
2022/07/30 02:41:48;;;;;;;9.23;8.30;;;18.60;99.90;;;;;;4918507;29;20074;-47
2022/07/30 02:44:17;;;;;;;10.57;8.88;;;18.60;99.90;;;;;;4918057;29;20024;-50
2022/07/30 02:46:44;;;;;;;11.38;8.02;;;18.50;99.90;;;;;;4918236;29;20410;-47
2022/07/30 02:49:10;;;;;;;8.90;8.10;;;18.50;99.90;;;;;;4918328;29;20032;-46
2022/07/30 02:51:36;;;;;;;9.50;7.32;;;18.50;99.90;;;;;;4918294;29;20028;-47
2022/07/30 02:54:03;;;;;;;10.77;7.47;;;18.40;99.90;;;;;;4917949;29;20016;-47
2022/07/30 02:56:30;;;;;;;10.65;8.15;;;18.40;99.90;;;;;;4918263;29;20477;-46
2022/07/30 02:58:57;;;;;;;8.93;8.13;;;18.40;99.90;;;;;;4918084;29;20118;-47
2022/07/30 03:01:24;;;;;;;9.98;9.07;;;18.30;99.90;;;;;;4918314;29;20042;-48
2022/07/30 03:03:51;;;;;;;12.40;9.27;;;18.30;99.90;;;;;;4918010;29;20054;-47
2022/07/30 03:06:18;;;;;;;13.63;9.27;;;18.20;99.90;;;;;;4918015;29;20111;-46
2022/07/30 03:08:45;;;;;;;13.25;9.98;;;18.20;99.90;;;;;;4917622;29;20084;-47
2022/07/30 03:11:11;;;;;;;10.25;9.23;;;18.10;99.90;;;;;;4918403;29;20056;-47
2022/07/30 03:13:37;;;;;;;10.55;9.55;;;18.10;99.90;;;;;;4917928;29;20028;-48
2022/07/30 03:16:07;;;;;;;14.10;10.70;;;18.00;99.90;;;;;;4917930;29;20491;-47
2022/07/30 03:18:35;;;;;;;11.80;10.55;;;18.00;99.90;;;;;;4917879;29;20035;-46
2022/07/30 03:21:02;;;;;;;15.13;9.02;;;17.90;99.90;;;;;;4917842;29;20131;-47
2022/07/30 03:23:32;;;;;;;9.73;8.77;;;17.80;99.90;;;;;;4917599;29;20024;-47
2022/07/30 03:26:00;;;;;;;12.93;10.40;;;17.80;99.90;;;;;;4918619;29;20030;-46
2022/07/30 03:28:29;;;;;;;9.23;8.23;;;17.80;99.90;;;;;;4918588;29;20125;-48
2022/07/30 03:30:55;;;;;;;10.25;9.05;;;17.90;99.90;;;;;;4917735;29;20046;-50
2022/07/30 03:33:22;;;;;;;10.85;8.52;;;17.90;99.90;;;;;;4916191;29;20482;-50
2022/07/30 03:35:48;;;;;;;11.75;8.93;;;17.90;99.90;;;;;;4917633;29;20082;-47
2022/07/30 03:38:14;;;;;;;9.68;8.68;;;17.90;99.90;;;;;;4917677;29;20433;-49
2022/07/30 03:40:41;;;;;;;10.68;9.57;;;17.80;99.90;;;;;;4917549;29;20036;-49
2022/07/30 03:43:11;;;;;;;15.13;9.57;;;17.80;99.90;;;;;;4917348;29;20028;-48
2022/07/30 03:45:43;;;;;;;9.45;8.55;;;17.80;99.90;;;;;;4917585;29;20086;-50
2022/07/30 03:48:10;;;;;;;8.50;7.60;;;17.80;99.90;;;;;;4917392;29;20167;-46
2022/07/30 03:50:38;;;;;;;9.93;8.93;;;17.80;99.90;;;;;;4917243;29;20036;-50
2022/07/30 03:53:05;;;;;;;9.88;8.75;;;17.80;99.90;;;;;;4917098;29;20024;-49
2022/07/30 03:55:32;;;;;;;11.23;9.10;;;17.80;99.90;;;;;;4917134;29;20039;-46
2022/07/30 03:58:00;;;;;;;11.32;9.02;;;17.80;99.90;;;;;;4917211;29;20031;-48
2022/07/30 04:00:26;;;;;;;10.23;8.80;;;17.80;99.90;;;;;;4917087;29;20028;-49
2022/07/30 04:02:52;;;;;;;12.95;9.68;;;17.80;99.90;;;;;;4918151;29;20028;-49
2022/07/30 04:05:19;;;;;;;12.93;11.48;;;17.80;99.90;;;;;;4916596;29;20410;-49
2022/07/30 04:07:45;;;;;;;12.73;11.43;;;17.70;99.90;;;;;;4916759;29;20406;-47
2022/07/30 04:10:10;;;;;;;17.92;12.40;;;17.70;99.90;;;;;;4916932;29;20058;-48
2022/07/30 04:12:36;;;;;;;11.85;10.70;;;17.70;99.90;;;;;;4917087;29;20537;-48
2022/07/30 04:15:01;;;;;;;10.63;8.52;;;17.70;99.90;;;;;;4916479;29;20028;-46
2022/07/30 04:17:48;;;;;;;10.88;8.43;;;17.60;99.90;;;;;;4939404;29;20039;-48
2022/07/30 04:20:22;;;;;;;10.98;9.85;;;17.70;99.90;;;;;;4916586;29;20452;-49
2022/07/30 04:22:49;;;;;;;16.27;12.13;;;17.70;99.90;;;;;;4926639;29;20094;-49
2022/07/30 04:25:15;;;;;;;15.38;10.98;;;17.70;99.90;;;;;;4935125;29;20536;-47
2022/07/30 04:27:41;;;;;;;11.30;9.85;;;17.80;99.90;;;;;;4935537;29;20035;-47
2022/07/30 04:30:07;;;;;;;15.25;9.70;;;17.80;99.90;;;;;;4938971;29;20106;-49
2022/07/30 04:32:34;;;;;;;9.88;8.88;;;17.90;99.90;;;;;;4935717;29;20031;-50
2022/07/30 04:34:59;;;;;;;14.75;10.40;;;17.90;99.90;;;;;;4944003;29;20090;-48
2022/07/30 04:37:26;;;;;;;13.88;11.27;;;18.00;99.90;;;;;;4935370;29;20032;-48
2022/07/30 04:39:56;;;;;;;13.00;11.32;;;18.00;99.90;;;;;;4934733;29;20059;-50
2022/07/30 04:42:23;;;;;;;11.68;10.55;;;18.00;99.90;;;;;;4934108;29;20199;-52
2022/07/30 04:44:49;;;;;;;12.25;11.02;;;17.90;99.90;;;;;;4935136;29;20437;-47
2022/07/30 04:47:16;;;;;;;13.32;11.65;;;17.90;99.90;;;;;;4938737;29;20086;-49
2022/07/30 04:49:42;;;;;;;12.20;11.02;;;17.90;99.90;;;;;;4938189;29;20366;-48
2022/07/30 04:52:09;;;;;;;11.63;10.40;;;18.00;99.90;;;;;;4935090;29;20027;-49
2022/07/30 04:54:45;;;;;;;11.00;9.50;;;18.10;99.90;;;;;;4934725;29;20028;-51
2022/07/30 04:57:12;;;;;;;11.32;9.20;;;18.20;99.90;;;;;;4935225;29;20415;-49
2022/07/30 04:59:38;;;;;;;9.30;8.40;;;18.50;99.90;;;;;;4937991;29;20503;-47
2022/07/30 05:02:06;;;;;;;13.45;9.48;;;19.00;99.90;;;;;;4951307;28;20035;-45
2022/07/30 05:04:33;;;;;;;11.15;8.57;;;19.60;99.90;;;;;;4936254;29;20027;-47
2022/07/30 05:07:01;;;;;;;10.00;7.88;;;20.20;99.90;;;;;;4934720;29;20024;-47
2022/07/30 05:09:28;;;;;;;7.60;7.00;;;20.90;99.90;;;;;;4935066;29;20031;-47
2022/07/30 05:11:55;;;;;;;10.70;7.13;;;21.70;99.90;;;;;;4934760;29;20051;-46
2022/07/30 05:14:22;;;;;;;6.72;5.60;;;22.30;99.90;;;;;;4935500;29;20031;-48
2022/07/30 05:16:48;;;;;;;11.45;6.28;;;23.00;99.90;;;;;;4934671;29;20027;-56
2022/07/30 05:19:14;;;;;;;8.25;5.55;;;23.40;99.90;;;;;;4933356;29;20032;-47
2022/07/30 05:21:39;;;;;;;8.60;5.35;;;23.70;99.90;;;;;;4945323;29;20461;-50
2022/07/30 05:24:05;;;;;;;9.32;4.82;;;23.90;99.90;;;;;;4934312;29;20095;-49
2022/07/30 05:26:31;;;;;;;7.43;4.93;;;24.40;99.60;;;;;;4934401;29;20051;-54
2022/07/30 05:28:57;;;;;;;5.25;4.10;;;24.90;99.00;;;;;;4948100;29;20027;-47
2022/07/30 05:31:23;;;;;;;4.90;4.40;;;25.50;98.00;;;;;;4953555;28;20117;-53
2022/07/30 05:33:49;;;;;;;6.38;4.13;;;25.90;97.40;;;;;;4953405;28;20110;-49
2022/07/30 05:36:14;;;;;;;7.28;4.65;;;26.50;95.90;;;;;;4946623;28;20469;-55
2022/07/30 05:38:40;;;;;;;6.75;4.00;;;27.20;94.80;;;;;;4953195;28;20117;-54
2022/07/30 05:41:06;;;;;;;5.15;3.75;;;27.40;93.40;;;;;;4953932;28;20388;-53
2022/07/30 05:43:31;;;;;;;5.97;3.70;;;27.80;92.60;;;;;;4953146;28;20038;-46
2022/07/30 05:45:57;;;;;;;5.88;3.83;;;28.20;91.60;;;;;;4953107;28;20066;-50
2022/07/30 05:48:22;;;;;;;6.35;3.97;;;28.50;91.00;;;;;;4952186;28;20030;-48
2022/07/30 05:50:48;;;;;;;5.03;4.00;;;28.70;90.60;;;;;;4953338;28;20035;-54
2022/07/30 05:53:13;;;;;;;4.93;3.70;;;28.80;90.00;;;;;;4952744;28;20062;-52
2022/07/30 05:55:39;;;;;;;5.43;4.07;;;28.90;89.50;;;;;;4953304;28;20035;-48
2022/07/30 05:58:04;;;;;;;6.38;4.05;;;29.10;87.20;;;;;;4953381;28;20030;-50
2022/07/30 06:00:30;;;;;;;6.28;3.75;;;29.70;86.70;;;;;;4953217;28;20043;-51
2022/07/30 06:02:55;;;;;;;11.02;3.80;;;29.90;85.40;;;;;;4957147;28;20023;-53
2022/07/30 06:05:21;;;;;;;6.57;3.20;;;30.10;83.90;;;;;;4956987;28;20031;-49
2022/07/30 06:07:46;;;;;;;6.45;3.60;;;30.10;84.70;;;;;;4957373;28;20047;-52
2022/07/30 06:10:12;;;;;;;11.35;3.38;;;30.10;84.10;;;;;;4957257;28;20023;-51
2022/07/30 06:12:38;;;;;;;3.80;3.50;;;30.30;81.60;;;;;;4957478;28;20031;-50
2022/07/30 06:15:03;;;;;;;4.90;3.45;;;30.30;82.10;;;;;;4956953;28;20019;-49
2022/07/30 06:17:29;;;;;;;6.95;3.60;;;30.70;80.30;;;;;;4957115;28;20054;-50
2022/07/30 06:19:55;;;;;;;7.88;3.53;;;30.80;80.00;;;;;;4957241;28;20457;-51
2022/07/30 06:22:20;;;;;;;4.50;2.85;;;30.90;79.40;;;;;;4957170;28;20548;-50
2022/07/30 06:24:46;;;;;;;5.05;3.33;;;31.10;78.50;;;;;;4956656;28;20094;-51
2022/07/30 06:27:11;;;;;;;8.63;4.13;;;31.30;78.70;;;;;;4956893;28;20376;-52
2022/07/30 06:29:37;;;;;;;9.07;3.70;;;31.70;77.80;;;;;;4956929;28;20032;-49
2022/07/30 06:32:03;;;;;;;6.00;3.38;;;31.80;77.10;;;;;;4955668;28;20031;-53
2022/07/30 06:34:28;;;;;;;9.57;3.72;;;31.90;76.60;;;;;;4956483;28;20432;-52
2022/07/30 06:36:53;;;;;;;9.63;3.67;;;32.00;75.90;;;;;;4956928;28;20038;-52
2022/07/30 06:39:19;;;;;;;5.53;2.83;;;32.20;75.10;;;;;;4956661;28;20118;-49
2022/07/30 06:41:45;;;;;;;7.75;3.33;;;32.00;74.40;;;;;;4956841;28;20034;-50
2022/07/30 06:44:11;;;;;;;10.75;3.40;;;31.60;74.70;;;;;;4956249;28;20031;-49
2022/07/30 06:46:36;;;;;;;5.22;3.53;;;31.70;75.10;;;;;;4956707;28;20035;-53
2022/07/30 06:49:02;;;;;;;6.93;2.75;;;31.90;74.70;;;;;;4957055;28;20077;-50
2022/07/30 06:51:28;;;;;;;5.53;3.05;;;31.90;75.00;;;;;;4956743;28;20030;-49
2022/07/30 06:53:53;;;;;;;10.98;3.75;;;32.20;74.60;;;;;;4948529;28;20028;-55
2022/07/30 06:56:19;;;;;;;7.32;3.35;;;32.60;74.10;;;;;;4939220;29;20106;-51
2022/07/30 06:58:44;;;;;;;4.93;3.50;;;33.00;72.10;;;;;;4945854;29;20054;-51
2022/07/30 07:01:10;;;;;;;4.35;3.17;;;32.40;73.80;;;;;;4941849;28;20058;-49
2022/07/30 07:03:35;;;;;;;7.10;3.53;;;32.40;73.20;;;;;;4944238;28;20401;-50
2022/07/30 07:06:01;;;;;;;5.47;3.97;;;32.80;72.50;;;;;;4937069;29;20020;-48
2022/07/30 07:08:26;;;;;;;11.57;3.40;;;33.20;71.90;;;;;;4947022;29;20019;-51
2022/07/30 07:10:52;;;;;;;10.23;3.83;;;33.40;71.80;;;;;;4949672;28;20107;-51
2022/07/30 07:13:17;;;;;;;13.82;4.05;;;34.00;70.30;;;;;;4936123;29;20036;-48
2022/07/30 07:15:43;;;;;;;7.47;3.92;;;34.20;69.70;;;;;;4936749;29;20031;-48
2022/07/30 07:18:11;;;;;;;6.07;2.97;;;34.20;69.00;;;;;;4936893;29;20031;-47
2022/07/30 07:20:37;;;;;;;6.75;4.10;;;34.10;67.90;;;;;;4936930;29;20032;-52
2022/07/30 07:23:02;;;;;;;7.47;3.63;;;34.20;67.60;;;;;;4951498;28;20082;-53
2022/07/30 07:25:28;;;;;;;5.78;3.88;;;34.00;68.00;;;;;;4943128;28;20401;-53
2022/07/30 07:27:53;;;;;;;6.85;3.75;;;34.20;67.70;;;;;;4947099;29;20039;-49
2022/07/30 07:30:19;;;;;;;6.78;3.92;;;34.50;67.60;;;;;;4936638;29;20035;-49
2022/07/30 07:32:44;;;;;;;7.97;3.90;;;34.70;68.40;;;;;;4936479;29;20371;-49
2022/07/30 07:35:12;;;;;;;7.30;4.22;;;34.80;66.50;;;;;;4936882;29;20039;-51
2022/07/30 07:37:38;;;;;;;9.45;4.05;;;34.60;67.10;;;;;;4936573;29;20079;-53
2022/07/30 07:40:04;;;;;;;6.85;3.50;;;34.50;67.50;;;;;;4936310;29;20084;-52
2022/07/30 07:42:30;;;;;;;7.40;4.45;;;34.50;66.40;;;;;;4936412;29;20461;-49
2022/07/30 07:44:55;;;;;;;8.93;4.30;;;34.40;67.00;;;;;;4935888;29;20024;-52
2022/07/30 07:47:20;;;;;;;9.02;4.00;;;34.40;67.30;;;;;;4937400;29;20110;-49
2022/07/30 07:49:46;;;;;;;8.05;3.90;;;34.50;65.90;;;;;;4938060;28;20593;-48
2022/07/30 07:52:11;;;;;;;10.32;3.90;;;34.90;66.10;;;;;;4944947;29;20039;-51
2022/07/30 07:54:37;;;;;;;8.40;5.28;;;34.60;65.80;;;;;;4935870;29;20087;-52
2022/07/30 07:57:06;;;;;;;11.00;5.05;;;33.70;66.80;;;;;;4939544;29;20028;-54
2022/07/30 07:59:32;;;;;;;7.03;4.72;;;32.60;68.40;;;;;;4935875;29;20027;-55
2022/07/30 08:01:58;;;;;;;10.13;4.75;;;31.60;70.80;;;;;;4945275;29;20409;-47
2022/07/30 08:04:23;;;;;;;12.00;4.25;;;31.40;71.70;;;;;;4935706;29;20036;-52
2022/07/30 08:06:49;;;;;;;13.65;4.35;;;31.20;72.10;;;;;;4935870;29;20020;-53
2022/07/30 08:09:15;;;;;;;7.75;4.40;;;31.50;72.10;;;;;;4935818;29;20024;-50
2022/07/30 08:11:40;;;;;;;13.25;5.70;;;31.80;70.90;;;;;;4935881;29;20030;-51
2022/07/30 08:14:06;;;;;;;10.13;6.07;;;32.00;70.40;;;;;;4935551;29;20023;-50
2022/07/30 08:16:31;;;;;;;9.05;5.28;;;32.80;68.60;;;;;;4935713;29;20040;-49
2022/07/30 08:18:57;;;;;;;10.57;4.95;;;33.10;66.80;;;;;;4934594;29;20620;-46
2022/07/30 08:21:22;;;;;;;6.60;3.85;;;32.80;66.50;;;;;;4935282;29;20031;-47
2022/07/30 08:23:48;;;;;;;10.02;5.47;;;32.40;67.40;;;;;;4933953;29;20032;-48
2022/07/30 08:26:13;;;;;;;8.95;4.50;;;32.40;67.20;;;;;;4935527;29;20027;-46
2022/07/30 08:28:39;;;;;;;9.82;5.43;;;32.10;66.80;;;;;;4939700;29;20032;-51
2022/07/30 08:31:04;;;;;;;9.75;4.22;;;31.90;67.90;;;;;;4939897;29;20064;-53
2022/07/30 08:33:30;;;;;;;8.10;4.75;;;32.20;68.00;;;;;;4939011;29;20063;-51
2022/07/30 08:35:55;;;;;;;11.77;5.40;;;32.60;67.10;;;;;;4948253;28;20473;-48
2022/07/30 08:38:21;;;;;;;12.38;7.68;;;32.90;67.20;;;;;;4949643;29;20042;-47
2022/07/30 08:40:46;;;;;;;11.65;5.63;;;33.10;66.90;;;;;;4943918;28;20110;-49
2022/07/30 08:43:12;;;;;;;12.10;4.43;;;33.20;67.20;;;;;;4951841;29;20054;-48
2022/07/30 08:45:38;;;;;;;8.90;5.25;;;32.90;67.80;;;;;;4943674;28;20378;-49
2022/07/30 08:48:07;;;;;;;10.43;4.40;;;32.80;67.60;;;;;;4947880;29;20465;-53
2022/07/30 08:50:33;;;;;;;7.18;4.60;;;32.50;68.50;;;;;;4916361;29;20468;-49
2022/07/30 08:53:00;;;;;;;6.32;4.93;;;32.50;69.20;;;;;;4916075;29;20108;-51
2022/07/30 08:55:26;;;;;;;6.63;4.93;;;32.20;69.30;;;;;;4916012;29;20032;-52
2022/07/30 08:57:52;;;;;;;7.30;4.60;;;31.90;69.00;;;;;;4916410;29;20088;-51
2022/07/30 09:00:18;;;;;;;5.43;4.93;;;31.70;69.80;;;;;;4915515;29;20048;-48
2022/07/30 09:02:43;;;;;;;11.57;5.15;;;31.60;69.90;;;;;;4933530;29;20504;-50
2022/07/30 09:05:10;;;;;;;10.50;5.55;;;31.40;69.70;;;;;;4953892;28;20070;-53
2022/07/30 09:07:36;;;;;;;13.55;5.97;;;30.90;70.80;;;;;;4952957;29;20038;-51
2022/07/30 09:10:04;;;;;;;8.48;4.18;;;30.40;71.70;;;;;;4953895;28;20396;-53
2022/07/30 09:12:44;;;;;;;6.03;5.38;;;30.20;71.70;;;;;;4954101;28;20473;-47
2022/07/30 09:15:17;;;;;;;6.75;4.43;;;30.20;72.10;;;;;;4953673;28;20035;-52
2022/07/30 09:18:02;;;;;;;9.45;4.65;;;30.20;72.60;;;;;;4953932;28;20030;-51
2022/07/30 09:20:30;;;;;;;7.45;4.47;;;30.10;73.20;;;;;;4952567;29;20054;-49
2022/07/30 09:22:59;;;;;;;6.72;3.92;;;30.10;72.30;;;;;;4953907;28;20047;-57
2022/07/30 09:25:42;;;;;;;7.15;4.05;;;30.30;70.80;;;;;;4953673;28;20020;-55
2022/07/30 09:28:09;;;;;;;5.57;3.13;;;30.10;70.90;;;;;;4955183;28;20453;-49
2022/07/30 09:30:49;;;;;;;9.88;3.58;;;29.90;71.70;;;;;;4953692;28;20027;-52
2022/07/30 09:33:40;;;;;;;7.40;3.50;;;29.70;71.90;;;;;;4953413;28;20033;-51
2022/07/30 09:36:11;;;;;;;5.10;3.20;;;29.50;72.20;;;;;;4953458;28;20027;-48
2022/07/30 09:38:47;;;;;;;6.75;2.90;;;29.30;72.50;;;;;;4953570;28;20604;-53
2022/07/30 09:41:14;;;;;;;8.82;4.80;;;29.40;71.30;;;;;;4953478;28;20115;-52
2022/07/30 09:43:47;;;;;;;4.97;4.03;;;29.30;71.10;;;;;;4953091;28;20034;-50
2022/07/30 09:46:13;;;;;;;6.97;4.22;;;28.80;72.50;;;;;;4953000;28;20493;-47
2022/07/30 09:48:39;;;;;;;13.23;3.33;;;28.70;73.00;;;;;;4954015;28;20035;-48
2022/07/30 09:51:05;;;;;;;6.28;2.17;;;28.80;73.40;;;;;;4953478;28;20409;-46
2022/07/30 09:53:31;;;;;;;6.93;2.53;;;29.00;73.20;;;;;;4953039;28;20037;-49
2022/07/30 09:55:58;;;;;;;5.43;2.85;;;29.30;72.50;;;;;;4953406;28;20024;-50
2022/07/30 09:58:36;;;;;;;4.35;3.38;;;29.50;71.70;;;;;;4953657;28;20023;-50
2022/07/30 10:01:02;;;;;;;4.45;2.80;;;29.40;71.00;;;;;;4952704;28;20027;-48
2022/07/30 10:03:27;;;;;;;7.68;2.58;;;29.20;71.00;;;;;;4951309;28;20425;-51
2022/07/30 10:05:58;;;;;;;3.50;2.70;;;29.10;70.90;;;;;;4953534;28;20031;-50
2022/07/30 10:08:48;;;;;;;3.40;2.47;;;29.00;70.20;;;;;;4953231;28;20433;-49
2022/07/30 10:11:23;;;;;;;2.00;1.75;;;28.70;68.10;;;;;;4953481;28;20027;-50
2022/07/30 10:13:54;;;;;;;5.05;2.10;;;28.40;69.20;;;;;;4952822;28;20446;-51
2022/07/30 10:16:20;;;;;;;2.38;1.67;;;28.40;69.20;;;;;;4953546;28;20041;-49
2022/07/30 10:18:45;;;;;;;3.35;2.05;;;28.50;69.00;;;;;;4953171;28;20110;-49
2022/07/30 10:21:12;;;;;;;8.20;2.15;;;28.40;69.50;;;;;;4952989;28;20462;-50
2022/07/30 10:23:39;;;;;;;4.88;2.13;;;28.30;69.40;;;;;;4952837;28;20031;-51
2022/07/30 10:26:06;;;;;;;8.32;2.20;;;28.10;70.00;;;;;;4953133;28;20026;-50
2022/07/30 10:28:32;;;;;;;2.25;1.50;;;28.30;70.30;;;;;;4951814;28;20023;-52
2022/07/30 10:30:58;;;;;;;4.35;1.60;;;28.20;68.50;;;;;;4953616;28;20078;-52
2022/07/30 10:33:29;;;;;;;2.90;1.92;;;28.30;67.30;;;;;;4952547;28;20035;-54
2022/07/30 10:35:55;;;;;;;5.60;2.03;;;28.20;65.70;;;;;;4953074;28;20027;-52
2022/07/30 10:38:26;;;;;;;2.05;1.70;;;28.10;66.80;;;;;;4953197;28;20031;-50
2022/07/30 10:40:55;;;;;;;3.25;1.80;;;28.10;66.30;;;;;;4952904;28;20031;-48
2022/07/30 10:43:43;;;;;;;2.40;1.55;;;28.00;65.50;;;;;;4952639;28;20066;-51
2022/07/30 10:46:34;;;;;;;3.67;1.73;;;28.10;65.80;;;;;;4952767;28;20187;-51
2022/07/30 10:49:16;;;;;;;2.05;1.50;;;28.00;65.80;;;;;;4956541;28;20031;-48
2022/07/30 10:51:59;;;;;;;3.28;1.90;;;27.80;67.10;;;;;;4956475;28;20028;-48
2022/07/30 10:54:33;;;;;;;1.85;1.73;;;27.70;66.50;;;;;;4956108;28;20043;-50
2022/07/30 10:57:12;;;;;;;3.75;1.65;;;27.60;66.10;;;;;;4956419;28;20401;-52
2022/07/30 11:00:01;;;;;;;4.15;1.80;;;27.60;67.20;;;;;;4956455;28;20027;-51
2022/07/30 11:02:28;;;;;;;3.55;1.65;;;27.60;67.40;;;;;;4953520;28;20074;-49
2022/07/30 11:05:18;;;;;;;6.63;2.13;;;27.60;67.90;;;;;;4955791;28;20485;-49
2022/07/30 11:07:47;;;;;;;3.33;1.92;;;27.50;68.10;;;;;;4956199;28;20080;-50
2022/07/30 11:10:38;;;;;;;2.88;1.70;;;27.50;67.50;;;;;;4955700;28;20073;-48
2022/07/30 11:13:05;;;;;;;5.15;1.73;;;27.60;67.10;;;;;;4956081;28;20358;-50
2022/07/30 11:15:54;;;;;;;3.03;1.92;;;27.50;66.70;;;;;;4955943;28;20408;-53
2022/07/30 11:18:19;;;;;;;1.85;1.65;;;27.60;67.00;;;;;;4956095;28;20027;-50
2022/07/30 11:21:16;;;;;;;3.45;1.63;;;27.50;67.40;;;;;;4956084;28;20370;-50
2022/07/30 11:23:44;;;;;;;1.92;1.60;;;27.40;67.50;;;;;;4955724;28;20027;-50
2022/07/30 11:26:10;;;;;;;4.57;1.50;;;27.30;66.70;;;;;;4955772;28;20031;-47
2022/07/30 11:28:37;;;;;;;2.08;1.88;;;27.10;67.50;;;;;;4956088;28;20437;-50
2022/07/30 11:31:23;;;;;;;1.83;1.73;;;27.10;68.70;;;;;;4955912;28;20035;-54
2022/07/30 11:33:48;;;;;;;3.60;1.60;;;27.20;69.10;;;;;;4955456;28;20046;-50
2022/07/30 11:36:14;;;;;;;3.53;1.50;;;27.10;67.20;;;;;;4955624;28;20031;-51
2022/07/30 11:38:58;;;;;;;8.48;1.90;;;27.00;68.20;;;;;;4955836;28;20030;-47
2022/07/30 11:41:24;;;;;;;6.57;1.83;;;27.10;67.80;;;;;;4955669;28;20055;-47
2022/07/30 11:44:28;;;;;;;3.58;1.88;;;27.10;67.80;;;;;;4955054;28;20672;-48
2022/07/30 11:46:54;;;;;;;2.45;1.60;;;27.20;65.70;;;;;;4955731;28;20075;-51
2022/07/30 11:49:20;;;;;;;5.07;1.65;;;27.30;65.90;;;;;;4955550;28;20031;-50
2022/07/30 11:51:48;;;;;;;1.73;1.42;;;27.30;65.50;;;;;;4954078;28;20031;-53
2022/07/30 11:54:14;;;;;;;2.08;1.67;;;27.30;65.80;;;;;;4953211;28;20037;-49
2022/07/30 11:56:54;;;;;;;5.55;1.80;;;27.30;66.00;;;;;;4937630;29;20109;-49
2022/07/30 11:59:19;;;;;;;2.28;1.65;;;27.10;66.10;;;;;;4935530;29;20062;-49
2022/07/30 12:01:54;;;;;;;6.40;1.42;;;27.20;66.70;;;;;;4939558;29;20469;-48
2022/07/30 12:04:20;;;;;;;1.95;1.65;;;27.20;67.60;;;;;;4935681;29;20434;-47
2022/07/30 12:06:47;;;;;;;3.55;1.50;;;27.30;66.50;;;;;;4935785;29;20028;-48
2022/07/30 12:09:22;;;;;;;1.80;1.60;;;27.30;64.80;;;;;;4935762;29;20024;-46
2022/07/30 12:11:47;;;;;;;1.92;1.40;;;27.40;64.70;;;;;;4946036;29;20050;-46
2022/07/30 12:14:13;;;;;;;2.47;1.70;;;27.50;63.60;;;;;;4938911;28;20562;-53
2022/07/30 12:16:41;;;;;;;3.22;1.50;;;27.40;64.20;;;;;;4936683;28;20099;-48
2022/07/30 12:19:06;;;;;;;3.83;1.60;;;27.30;64.00;;;;;;4935911;29;20039;-50
2022/07/30 12:21:32;;;;;;;1.60;1.50;;;27.20;64.60;;;;;;4935496;29;20024;-49
2022/07/30 12:24:00;;;;;;;2.72;1.67;;;26.90;65.90;;;;;;4935254;29;20031;-49
2022/07/30 12:26:30;;;;;;;1.42;1.33;;;27.00;65.50;;;;;;4949350;28;20031;-49
2022/07/30 12:28:59;;;;;;;3.03;1.73;;;27.10;65.50;;;;;;4937344;29;20487;-49
2022/07/30 12:31:25;;;;;;;2.22;1.55;;;27.10;64.60;;;;;;4935527;29;20035;-48
2022/07/30 12:33:51;;;;;;;1.85;1.52;;;27.20;64.50;;;;;;4934926;29;20099;-51
2022/07/30 12:36:37;;;;;;;3.42;1.23;;;27.30;64.10;;;;;;4945495;29;20605;-50
2022/07/30 12:39:05;;;;;;;1.40;1.30;;;27.40;63.80;;;;;;4954126;28;20047;-51
2022/07/30 12:41:42;;;;;;;5.07;1.48;;;27.50;62.50;;;;;;4939971;28;20032;-49
2022/07/30 12:44:08;;;;;;;12.32;1.90;;;27.50;63.20;;;;;;4946524;29;20070;-48
2022/07/30 12:46:39;;;;;;;4.03;1.70;;;27.50;63.60;;;;;;4935197;29;20312;-50
2022/07/30 12:49:06;;;;;;;2.55;1.48;;;27.60;63.50;;;;;;4935054;29;20481;-49
2022/07/30 12:51:33;;;;;;;2.65;2.35;;;27.60;63.60;;;;;;4935141;29;20050;-52
2022/07/30 12:54:01;;;;;;;7.38;3.00;;;27.60;64.20;;;;;;4934757;29;20405;-50